Time;durP1;ratioP1;P1;durP2;ratioP2;P2;SDS_P1;SDS_P2;PMS_P1;PMS_P2;Temp;Humidity;BMP_temperature;BMP_pressure;BME280_temperature;BME280_humidity;BME280_pressure;Samples;Min_cycle;Max_cycle;Signal;HPM_P1;HPM_P2
2021/06/30 00:01:17;;;;;;;1.20;1.10;;;19.00;99.90;;;;;;5019843;28;20548;-84
2021/06/30 00:07:32;;;;;;;1.70;0.90;;;18.90;99.90;;;;;;5012449;28;20539;-87
2021/06/30 00:13:12;;;;;;;1.10;1.00;;;18.80;99.90;;;;;;5041030;28;20449;-88
2021/06/30 00:15:59;;;;;;;2.40;1.40;;;18.80;99.90;;;;;;5041374;28;20485;-89
2021/06/30 00:19:15;;;;;;;1.87;1.50;;;18.80;99.90;;;;;;5044262;28;20477;-89
2021/06/30 00:22:06;;;;;;;1.33;1.20;;;18.80;99.90;;;;;;5033722;28;20437;-84
2021/06/30 00:25:03;;;;;;;1.60;1.50;;;18.70;99.90;;;;;;5026925;28;20973;-83
2021/06/30 00:27:36;;;;;;;1.70;1.60;;;18.70;99.90;;;;;;5032692;28;20505;-85
2021/06/30 00:30:07;;;;;;;0.97;0.97;;;18.70;99.90;;;;;;5034564;28;20457;-84
2021/06/30 00:32:41;;;;;;;1.23;1.13;;;18.80;99.90;;;;;;5032544;28;20546;-84
2021/06/30 00:35:09;;;;;;;2.33;1.40;;;18.70;99.90;;;;;;5028853;28;20481;-85
2021/06/30 00:37:44;;;;;;;1.60;1.50;;;19.10;99.90;;;;;;5033617;28;20472;-85
2021/06/30 00:40:14;;;;;;;1.70;1.60;;;19.10;99.90;;;;;;5039877;28;20450;-85
2021/06/30 00:42:54;;;;;;;2.70;1.30;;;18.90;99.90;;;;;;5036965;28;20442;-84
2021/06/30 00:45:32;;;;;;;1.57;1.47;;;18.90;99.90;;;;;;5020144;28;20461;-83
2021/06/30 00:48:11;;;;;;;1.47;1.20;;;18.90;99.90;;;;;;5025930;28;20454;-84
2021/06/30 00:50:52;;;;;;;1.60;1.40;;;19.00;99.90;;;;;;5018612;28;20462;-84
2021/06/30 00:53:35;;;;;;;;;;;;;;;;;;;;;
2021/06/30 00:56:24;;;;;;;2.90;1.43;;;18.90;99.90;;;;;;5017098;28;20451;-84
2021/06/30 00:58:57;;;;;;;1.83;1.73;;;18.50;99.90;;;;;;5020079;28;20473;-83
2021/06/30 01:01:25;;;;;;;1.90;1.80;;;18.30;99.90;;;;;;5018638;28;20468;-83
2021/06/30 01:03:56;;;;;;;1.60;1.50;;;18.40;99.90;;;;;;5017215;28;20523;-84
2021/06/30 01:06:23;;;;;;;2.27;2.00;;;18.60;99.90;;;;;;5020159;28;20492;-83
2021/06/30 01:09:30;;;;;;;2.33;1.90;;;18.60;99.90;;;;;;4953672;28;21739;-87
2021/06/30 01:12:01;;;;;;;2.17;1.60;;;18.60;99.90;;;;;;4970198;28;20803;-84
2021/06/30 01:15:38;;;;;;;1.83;1.73;;;18.50;99.90;;;;;;4955549;28;20561;-86
2021/06/30 01:18:08;;;;;;;1.90;1.67;;;18.50;99.90;;;;;;4912732;29;20498;-90
2021/06/30 01:20:43;;;;;;;2.00;1.90;;;18.40;99.90;;;;;;4897959;29;20451;-85
2021/06/30 01:23:15;;;;;;;2.33;1.90;;;18.50;99.90;;;;;;4931266;28;20460;-83
2021/06/30 01:25:47;;;;;;;2.00;1.90;;;18.40;99.90;;;;;;4970984;28;20574;-84
2021/06/30 01:28:20;;;;;;;2.20;1.57;;;18.40;99.90;;;;;;5015404;28;20478;-82
2021/06/30 01:31:30;;;;;;;2.40;2.20;;;18.40;99.90;;;;;;5018511;28;20465;-86
2021/06/30 01:33:57;;;;;;;3.30;1.80;;;18.50;99.90;;;;;;4956352;28;20472;-83
2021/06/30 01:37:08;;;;;;;2.43;1.63;;;18.50;99.90;;;;;;4958148;28;20599;-84
2021/06/30 01:39:49;;;;;;;2.40;1.83;;;18.40;99.90;;;;;;5021351;28;20456;-83
2021/06/30 01:42:20;;;;;;;1.90;1.80;;;18.60;99.90;;;;;;5017317;28;20560;-83
2021/06/30 01:44:47;;;;;;;2.70;2.10;;;18.70;99.90;;;;;;5020154;28;20554;-85
2021/06/30 01:47:18;;;;;;;2.27;2.10;;;18.60;99.90;;;;;;5019365;28;20478;-85
2021/06/30 01:49:45;;;;;;;2.27;2.07;;;18.50;99.90;;;;;;5019556;28;20541;-82
2021/06/30 01:52:15;;;;;;;2.73;2.00;;;18.50;99.90;;;;;;5018978;28;20445;-84
2021/06/30 01:54:46;;;;;;;2.30;2.10;;;18.40;99.90;;;;;;5019778;28;20559;-85
2021/06/30 01:57:18;;;;;;;1.93;1.70;;;18.50;99.90;;;;;;5021050;28;20445;-85
2021/06/30 01:59:45;;;;;;;2.17;1.90;;;18.40;99.90;;;;;;5020174;28;20562;-83
2021/06/30 02:02:17;;;;;;;2.60;2.40;;;18.50;99.90;;;;;;5017985;28;20480;-83
2021/06/30 02:05:01;;;;;;;2.20;2.00;;;18.60;99.90;;;;;;5017332;28;20522;-83
2021/06/30 02:07:33;;;;;;;2.57;2.00;;;18.60;99.90;;;;;;5018615;28;20622;-83
2021/06/30 02:10:00;;;;;;;2.60;2.20;;;18.40;99.90;;;;;;5019619;28;20471;-85
2021/06/30 02:12:27;;;;;;;4.00;1.77;;;18.40;99.90;;;;;;5017952;28;20445;-83
2021/06/30 02:14:53;;;;;;;2.57;2.20;;;18.50;99.90;;;;;;5024791;28;21046;-83
2021/06/30 02:17:23;;;;;;;2.37;2.17;;;18.60;99.90;;;;;;5026174;28;20530;-82
2021/06/30 02:19:52;;;;;;;2.43;2.00;;;18.50;99.90;;;;;;5022991;28;20469;-83
2021/06/30 02:22:24;;;;;;;3.57;2.07;;;18.30;99.90;;;;;;5022358;28;20461;-85
2021/06/30 02:24:57;;;;;;;2.53;2.33;;;18.20;99.90;;;;;;5020681;28;20480;-86
2021/06/30 02:35:25;;;;;;;3.20;2.50;;;18.40;99.90;;;;;;4843560;29;20475;-83
2021/06/30 02:37:59;;;;;;;6.40;3.70;;;18.50;99.90;;;;;;4943887;29;20463;-85
2021/06/30 02:45:40;;;;;;;;;;;;;;;;;;;;;
2021/06/30 02:48:31;;;;;;;3.13;2.90;;;18.40;99.90;;;;;;4887229;29;20482;-84
2021/06/30 02:51:02;;;;;;;2.93;2.73;;;18.40;99.90;;;;;;4879445;29;20488;-85
2021/06/30 02:53:40;;;;;;;3.50;3.20;;;18.30;99.90;;;;;;4798124;28;10000378;-86
2021/06/30 02:56:07;;;;;;;3.63;3.33;;;18.30;99.90;;;;;;5003220;28;20483;-85
2021/06/30 03:01:49;;;;;;;2.83;2.60;;;18.20;99.90;;;;;;5010264;28;20468;-85
2021/06/30 03:09:27;;;;;;;2.70;2.50;;;18.10;99.90;;;;;;5046690;28;20981;-84
2021/06/30 03:11:53;;;;;;;2.73;2.53;;;18.10;99.90;;;;;;5047567;28;20440;-87
2021/06/30 03:14:29;;;;;;;2.73;2.43;;;18.10;99.90;;;;;;5218391;22;20556;-85
2021/06/30 03:16:56;;;;;;;2.37;2.20;;;18.00;99.90;;;;;;5051863;28;20499;-86
2021/06/30 03:23:29;;;;;;;4.83;1.87;;;17.80;99.90;;;;;;5006562;28;21165;-84
2021/06/30 03:33:56;;;;;;;3.60;2.60;;;17.70;99.90;;;;;;4883399;29;20495;-86
2021/06/30 03:36:28;;;;;;;3.17;2.87;;;17.80;99.90;;;;;;4972841;28;20542;-85
2021/06/30 03:38:54;;;;;;;4.40;3.60;;;17.80;99.90;;;;;;4974855;28;20471;-84
2021/06/30 03:41:21;;;;;;;4.30;3.53;;;17.80;99.90;;;;;;4975970;28;20502;-84
2021/06/30 03:43:53;;;;;;;4.63;4.10;;;17.70;99.90;;;;;;4974965;28;20467;-83
2021/06/30 03:46:24;;;;;;;6.90;3.97;;;17.80;99.90;;;;;;4975103;28;20538;-85
2021/06/30 03:48:56;;;;;;;4.93;4.30;;;17.80;99.90;;;;;;4972770;28;21109;-84
2021/06/30 03:51:23;;;;;;;4.37;3.37;;;17.80;99.90;;;;;;4973150;28;20459;-85
2021/06/30 03:53:55;;;;;;;6.43;4.10;;;17.70;99.90;;;;;;4972614;28;20496;-84
2021/06/30 03:56:26;;;;;;;4.10;3.67;;;17.60;99.90;;;;;;4960494;28;20531;-85
2021/06/30 03:58:55;;;;;;;5.00;4.50;;;17.70;99.90;;;;;;4974981;28;20534;-86
2021/06/30 04:01:22;;;;;;;4.73;4.00;;;17.60;99.90;;;;;;4975007;28;20459;-85
2021/06/30 04:03:59;;;;;;;4.83;4.07;;;17.70;99.90;;;;;;4957522;28;20694;-84
2021/06/30 04:06:26;;;;;;;5.60;4.37;;;17.60;99.90;;;;;;4974121;28;20448;-86
2021/06/30 04:09:37;;;;;;;4.40;4.00;;;17.70;99.90;;;;;;4960877;28;20503;-85
2021/06/30 04:12:04;;;;;;;6.20;4.07;;;17.90;99.90;;;;;;4964205;28;21003;-84
2021/06/30 04:14:31;;;;;;;4.30;4.00;;;17.90;99.90;;;;;;4973182;28;20479;-89
2021/06/30 04:21:44;;;;;;;6.77;5.17;;;17.80;99.90;;;;;;5002398;28;20517;-86
2021/06/30 04:24:19;;;;;;;7.13;4.53;;;17.90;99.90;;;;;;4969804;28;20498;-88
2021/06/30 04:26:48;;;;;;;11.83;4.93;;;17.80;99.90;;;;;;4981948;28;20838;-88
2021/06/30 04:33:04;;;;;;;7.73;4.70;;;18.10;99.90;;;;;;4997837;28;20437;-87
2021/06/30 04:35:33;;;;;;;7.07;6.17;;;18.30;99.90;;;;;;5016842;28;20461;-83
2021/06/30 04:38:06;;;;;;;11.60;6.40;;;18.50;99.90;;;;;;5017204;28;20470;-83
2021/06/30 04:40:33;;;;;;;9.50;6.10;;;18.50;99.90;;;;;;5015835;28;20462;-85
2021/06/30 04:43:05;;;;;;;7.40;5.60;;;18.20;99.90;;;;;;5014987;28;22971;-87
2021/06/30 04:45:31;;;;;;;9.60;6.80;;;18.20;99.90;;;;;;5031612;28;20482;-84
2021/06/30 04:47:59;;;;;;;9.60;5.40;;;18.30;99.90;;;;;;5015274;28;20488;-87
2021/06/30 04:53:39;;;;;;;5.03;4.53;;;18.20;99.90;;;;;;5023224;28;20960;-84
2021/06/30 04:57:28;;;;;;;;;;;;;;;;;;;;;
2021/06/30 05:03:42;;;;;;;6.67;5.50;;;18.10;99.90;;;;;;4999866;28;20424;-86
2021/06/30 05:06:21;;;;;;;8.10;6.53;;;18.20;99.90;;;;;;5023098;28;20446;-86
2021/06/30 05:08:47;;;;;;;9.03;5.10;;;18.30;99.90;;;;;;5034173;28;20494;-85
2021/06/30 05:19:10;;;;;;;4.67;3.50;;;17.90;99.90;;;;;;4991337;28;20445;-88
2021/06/30 05:21:47;;;;;;;4.57;3.80;;;17.70;99.90;;;;;;5023431;28;20425;-86
2021/06/30 05:24:15;;;;;;;6.00;4.87;;;17.80;99.90;;;;;;5021380;28;20465;-86
2021/06/30 05:26:41;;;;;;;6.60;4.47;;;18.00;99.90;;;;;;5020159;28;20454;-86
2021/06/30 05:29:17;;;;;;;7.03;4.00;;;17.90;99.90;;;;;;5022217;28;20940;-89
2021/06/30 05:40:35;;;;;;;5.70;4.93;;;18.00;99.90;;;;;;5003435;28;20471;-88
2021/06/30 05:47:17;;;;;;;5.20;4.80;;;18.10;99.90;;;;;;4962123;28;20469;-87
2021/06/30 05:49:44;;;;;;;5.90;4.90;;;18.30;99.90;;;;;;4936818;29;20514;-81
2021/06/30 05:55:58;;;;;;;5.10;4.43;;;18.30;99.90;;;;;;4982547;28;20538;-85
2021/06/30 05:58:33;;;;;;;5.03;4.27;;;18.40;99.90;;;;;;4989409;28;20478;-83
2021/06/30 06:04:36;;;;;;;4.47;4.00;;;18.60;99.90;;;;;;4931472;28;20538;-84
2021/06/30 06:07:06;;;;;;;4.60;4.20;;;18.60;99.90;;;;;;4919862;28;20509;-86
2021/06/30 06:21:42;;;;;;;3.70;3.40;;;19.30;99.90;;;;;;4954000;28;20452;-86
2021/06/30 06:24:09;;;;;;;4.93;4.00;;;19.20;99.90;;;;;;4970822;28;20467;-85
2021/06/30 06:26:36;;;;;;;4.53;4.20;;;19.20;99.90;;;;;;4990467;28;20490;-85
2021/06/30 06:32:50;;;;;;;8.00;6.17;;;19.20;99.90;;;;;;4951645;28;20502;-86
2021/06/30 06:35:17;;;;;;;7.70;5.30;;;19.20;99.90;;;;;;4974909;28;20475;-84
2021/06/30 06:50:56;;;;;;;5.23;3.73;;;19.40;99.90;;;;;;5462332;23;20503;-86
2021/06/30 07:00:49;;;;;;;6.00;3.60;;;19.30;99.90;;;;;;5042850;28;21731;-88
2021/06/30 07:03:15;;;;;;;3.87;3.20;;;19.40;99.90;;;;;;5044932;28;20429;-84
2021/06/30 07:05:47;;;;;;;3.77;3.47;;;19.20;99.90;;;;;;5040825;28;20492;-88
2021/06/30 07:16:14;;;;;;;2.20;2.10;;;19.00;99.90;;;;;;4971280;28;20455;-85
2021/06/30 07:18:46;;;;;;;1.73;1.63;;;19.00;99.90;;;;;;5038167;28;20527;-86
2021/06/30 07:25:44;;;;;;;8.10;2.40;;;19.00;99.90;;;;;;5166193;22;20495;-89
2021/06/30 07:29:14;;;;;;;;;;;;;;;;;;;;;
2021/06/30 07:32:48;;;;;;;;;;;;;;;;;;;;;
2021/06/30 07:35:38;;;;;;;2.00;1.90;;;19.10;99.90;;;;;;5154196;23;20489;-86
2021/06/30 07:38:05;;;;;;;1.60;1.50;;;19.10;99.90;;;;;;5023737;28;20464;-85
2021/06/30 07:40:37;;;;;;;2.63;1.63;;;19.00;99.90;;;;;;5023825;28;20541;-86
2021/06/30 07:43:09;;;;;;;1.70;1.33;;;19.10;99.90;;;;;;5025274;28;20462;-85
2021/06/30 07:46:04;;;;;;;;;;;;;;;;;;;;;
2021/06/30 07:48:50;;;;;;;2.40;1.47;;;19.20;99.90;;;;;;5027726;28;20484;-86
2021/06/30 07:52:31;;;;;;;5.43;1.23;;;19.40;99.90;;;;;;5029857;28;20468;-86
2021/06/30 07:55:12;;;;;;;1.50;1.13;;;19.70;99.90;;;;;;5028822;28;20987;-85
2021/06/30 07:58:41;;;;;;;;;;;;;;;;;;;;;
2021/06/30 08:01:28;;;;;;;0.80;0.80;;;19.50;99.90;;;;;;4999855;28;20546;-86
2021/06/30 08:03:55;;;;;;;1.47;1.10;;;19.70;99.90;;;;;;5029349;28;20474;-87
2021/06/30 08:06:22;;;;;;;2.13;1.40;;;20.00;99.90;;;;;;5028208;28;20460;-89
2021/06/30 08:08:49;;;;;;;2.10;1.90;;;20.10;99.90;;;;;;5026019;28;20526;-89
2021/06/30 08:23:23;;;;;;;1.13;0.77;;;20.30;99.90;;;;;;4983731;28;20413;-85
2021/06/30 08:26:37;;;;;;;;;;;;;;;;;;;;;
2021/06/30 08:32:55;;;;;;;1.53;1.43;;;20.00;99.90;;;;;;5022720;28;20988;-85
2021/06/30 08:59:17;;;;;;;2.83;1.90;;;20.50;99.30;;;;;;4914868;28;20494;-87
2021/06/30 09:08:42;;;;;;;2.10;2.00;;;21.00;98.20;;;;;;4960051;28;20558;-86
2021/06/30 09:11:45;;;;;;;4.57;4.17;;;20.90;98.10;;;;;;4946036;28;20467;-87
2021/06/30 09:14:23;;;;;;;4.40;4.10;;;21.10;97.60;;;;;;4945646;28;20475;-86
2021/06/30 09:16:54;;;;;;;2.20;2.10;;;21.80;96.90;;;;;;4950882;28;20471;-85
2021/06/30 09:19:47;;;;;;;1.60;1.50;;;21.90;95.60;;;;;;4985249;28;20501;-84
2021/06/30 09:26:02;;;;;;;2.30;2.10;;;22.00;95.00;;;;;;5164554;22;20495;-86
2021/06/30 09:28:29;;;;;;;1.80;1.70;;;21.90;95.10;;;;;;5024176;28;20927;-86
2021/06/30 09:31:00;;;;;;;2.80;1.70;;;22.30;94.90;;;;;;5024728;28;20460;-85
2021/06/30 09:33:46;;;;;;;1.90;1.80;;;23.00;94.30;;;;;;5024037;28;20459;-86
2021/06/30 09:36:13;;;;;;;2.03;1.87;;;24.10;91.40;;;;;;5022307;28;20472;-87
2021/06/30 09:38:43;;;;;;;2.03;1.20;;;23.30;92.30;;;;;;5006608;28;20554;-85
2021/06/30 09:41:28;;;;;;;1.40;1.30;;;22.50;93.10;;;;;;5004889;28;20477;-87
2021/06/30 09:44:18;;;;;;;1.80;1.60;;;22.20;93.70;;;;;;4999169;28;20484;-86
2021/06/30 09:46:53;;;;;;;1.43;1.33;;;22.10;93.80;;;;;;5005158;28;20446;-85
2021/06/30 09:49:21;;;;;;;2.37;1.67;;;22.00;93.60;;;;;;5003962;28;20542;-86
2021/06/30 09:52:21;;;;;;;1.73;1.40;;;22.20;93.60;;;;;;5020657;28;20454;-88
2021/06/30 09:55:02;;;;;;;2.90;2.47;;;22.70;92.40;;;;;;5000533;28;20458;-86
2021/06/30 09:58:27;;;;;;;2.20;2.10;;;23.00;92.50;;;;;;5018305;28;20466;-86
2021/06/30 10:01:29;;;;;;;3.87;2.10;;;23.20;92.40;;;;;;5002298;28;20519;-84
2021/06/30 10:03:58;;;;;;;1.40;1.30;;;24.20;91.00;;;;;;5017469;28;20474;-86
2021/06/30 10:06:34;;;;;;;1.80;1.30;;;24.00;90.00;;;;;;4997901;28;20442;-87
2021/06/30 10:09:06;;;;;;;2.30;1.30;;;24.40;89.80;;;;;;4997100;28;20514;-86
2021/06/30 10:11:34;;;;;;;1.57;1.10;;;24.80;87.70;;;;;;4999087;28;20462;-85
2021/06/30 10:14:02;;;;;;;2.20;1.00;;;25.40;84.90;;;;;;5017109;28;20649;-88
2021/06/30 10:16:38;;;;;;;1.30;1.30;;;25.20;84.40;;;;;;5015509;28;20469;-87
2021/06/30 10:19:04;;;;;;;4.33;3.97;;;25.30;83.00;;;;;;4998699;28;20505;-87
2021/06/30 10:21:31;;;;;;;1.40;1.30;;;25.80;80.60;;;;;;5016873;28;20793;-84
2021/06/30 10:23:59;;;;;;;1.33;1.30;;;26.30;76.50;;;;;;4998116;28;20584;-86
2021/06/30 10:26:26;;;;;;;1.10;1.00;;;25.70;78.00;;;;;;5000844;28;20449;-85
2021/06/30 10:28:57;;;;;;;1.30;1.20;;;25.40;78.60;;;;;;4999597;28;21716;-85
2021/06/30 10:31:24;;;;;;;1.10;1.10;;;24.90;79.90;;;;;;5015350;28;20476;-86
2021/06/30 10:36:46;;;;;;;1.77;1.50;;;24.70;81.40;;;;;;5000942;28;20471;-88
2021/06/30 10:39:38;;;;;;;1.30;1.20;;;24.20;83.00;;;;;;5001453;28;20538;-88
2021/06/30 10:42:21;;;;;;;1.63;1.43;;;23.90;85.30;;;;;;4645287;28;10000023;-86
2021/06/30 10:44:55;;;;;;;1.93;1.10;;;24.40;83.20;;;;;;4996129;28;20254;-85
2021/06/30 10:47:52;;;;;;;3.20;1.80;;;23.60;87.40;;;;;;4992420;28;20494;-85
2021/06/30 10:50:37;;;;;;;2.33;1.70;;;23.40;88.70;;;;;;5002453;28;20485;-85
2021/06/30 10:54:21;;;;;;;1.60;1.50;;;23.10;89.70;;;;;;4972158;28;20448;-84
2021/06/30 11:09:04;;;;;;;3.23;1.33;;;23.20;91.70;;;;;;4859813;29;20478;-86
2021/06/30 11:23:36;;;;;;;1.27;0.90;;;24.90;85.00;;;;;;4785730;29;20531;-86
2021/06/30 11:26:33;;;;;;;0.87;0.80;;;24.40;85.40;;;;;;4825834;29;20491;-86
2021/06/30 11:29:38;;;;;;;0.70;0.70;;;23.70;88.10;;;;;;4864378;29;20491;-86
2021/06/30 11:33:21;;;;;;;0.80;0.70;;;23.50;85.50;;;;;;4933583;29;20442;-86
2021/06/30 11:36:09;;;;;;;0.90;0.90;;;23.60;86.90;;;;;;4972271;28;20443;-85
2021/06/30 11:38:39;;;;;;;1.10;0.97;;;23.80;86.90;;;;;;4964363;28;21494;-85
2021/06/30 11:41:22;;;;;;;0.77;0.77;;;23.60;87.10;;;;;;5007401;28;20446;-87
2021/06/30 11:43:56;;;;;;;1.37;1.07;;;23.40;88.80;;;;;;4998068;28;20475;-85
2021/06/30 11:46:23;;;;;;;1.10;1.00;;;23.20;90.30;;;;;;5004820;28;20447;-89
2021/06/30 11:48:51;;;;;;;0.93;0.93;;;23.10;89.20;;;;;;5026320;28;20451;-88
2021/06/30 11:51:18;;;;;;;1.00;0.90;;;23.30;88.40;;;;;;5012397;28;20453;-91
2021/06/30 11:53:49;;;;;;;1.10;1.10;;;23.70;87.80;;;;;;5011704;28;20453;-91
2021/06/30 11:56:38;;;;;;;1.07;0.90;;;24.00;87.80;;;;;;5010436;28;20501;-90
2021/06/30 11:59:20;;;;;;;1.27;1.17;;;24.20;85.50;;;;;;5013377;28;20469;-90
2021/06/30 12:01:49;;;;;;;1.60;1.30;;;24.00;85.50;;;;;;5016437;28;20441;-91
2021/06/30 12:04:23;;;;;;;1.80;1.30;;;24.00;85.60;;;;;;5017892;28;20492;-89
2021/06/30 12:07:00;;;;;;;1.30;1.30;;;23.80;86.10;;;;;;5033120;28;20455;-89
2021/06/30 12:09:44;;;;;;;2.17;1.73;;;23.70;87.20;;;;;;4752756;23;10001564;-89
2021/06/30 12:12:30;;;;;;;1.37;1.27;;;23.60;86.20;;;;;;5082038;28;20262;-89
2021/06/30 12:14:57;;;;;;;1.50;1.40;;;23.50;85.10;;;;;;5156905;22;20610;-90
2021/06/30 12:17:34;;;;;;;1.20;1.20;;;23.40;85.30;;;;;;5059985;28;20491;-91
2021/06/30 12:20:18;;;;;;;1.40;1.30;;;23.30;86.50;;;;;;5042830;28;20443;-89
2021/06/30 12:22:50;;;;;;;1.40;1.23;;;23.50;86.70;;;;;;5053237;28;20476;-89
2021/06/30 12:25:31;;;;;;;1.20;1.20;;;23.70;86.30;;;;;;5042852;28;21809;-88
2021/06/30 12:28:05;;;;;;;1.53;1.20;;;23.60;86.70;;;;;;5039255;28;20448;-89
2021/06/30 12:30:47;;;;;;;1.90;1.80;;;23.70;87.10;;;;;;5040914;28;20512;-89
2021/06/30 12:33:28;;;;;;;2.33;1.83;;;23.80;86.00;;;;;;5034053;28;20450;-86
2021/06/30 12:35:57;;;;;;;2.40;2.20;;;23.70;86.70;;;;;;5034128;28;20501;-88
2021/06/30 12:38:38;;;;;;;2.20;2.10;;;23.60;86.60;;;;;;5034195;28;20461;-86
2021/06/30 12:41:18;;;;;;;2.30;2.20;;;23.30;85.90;;;;;;5030915;28;20531;-87
2021/06/30 12:48:10;;;;;;;2.40;2.20;;;23.00;88.30;;;;;;4974441;28;20503;-86
2021/06/30 12:50:56;;;;;;;2.70;2.00;;;23.20;89.80;;;;;;5019849;28;20481;-88
2021/06/30 12:53:28;;;;;;;1.87;1.77;;;23.10;89.40;;;;;;5029339;28;20449;-87
2021/06/30 12:56:10;;;;;;;3.17;1.60;;;23.10;89.30;;;;;;5032769;28;20548;-87
2021/06/30 12:58:42;;;;;;;2.30;2.10;;;23.10;88.40;;;;;;5032087;28;20440;-87
2021/06/30 13:01:15;;;;;;;2.27;2.07;;;23.10;88.80;;;;;;5032552;28;20446;-86
2021/06/30 13:03:54;;;;;;;2.30;2.10;;;23.20;87.40;;;;;;5017180;28;20580;-86
2021/06/30 13:06:22;;;;;;;3.03;2.10;;;23.20;88.20;;;;;;5016143;28;20568;-86
2021/06/30 13:09:12;;;;;;;1.80;1.70;;;23.20;87.40;;;;;;5009254;28;22428;-86
2021/06/30 13:11:41;;;;;;;2.20;2.10;;;23.00;87.10;;;;;;5008733;28;20449;-87
2021/06/30 13:14:12;;;;;;;2.30;2.20;;;23.10;88.00;;;;;;5009643;28;20476;-86
2021/06/30 13:17:15;;;;;;;2.07;1.97;;;23.30;87.60;;;;;;5011044;28;20476;-88
2021/06/30 13:19:55;;;;;;;2.37;2.17;;;23.60;86.90;;;;;;5015613;28;20438;-87
2021/06/30 13:22:28;;;;;;;2.57;2.20;;;23.60;86.20;;;;;;5003168;28;20485;-86
2021/06/30 13:25:06;;;;;;;2.07;1.97;;;23.30;87.30;;;;;;5015738;28;20500;-87
2021/06/30 13:36:30;;;;;;;2.10;2.00;;;23.50;87.40;;;;;;5011684;28;20492;-87
2021/06/30 13:42:40;;;;;;;2.20;2.10;;;23.40;86.80;;;;;;5006370;28;20496;-87
2021/06/30 13:49:34;;;;;;;2.70;2.60;;;23.20;86.80;;;;;;5013875;28;20540;-88
2021/06/30 13:56:08;;;;;;;2.23;2.13;;;23.20;88.90;;;;;;4984421;28;20442;-88
2021/06/30 13:58:35;;;;;;;2.80;2.67;;;23.30;88.90;;;;;;5013780;28;20458;-89
2021/06/30 14:01:04;;;;;;;3.00;2.80;;;23.20;88.00;;;;;;5018632;28;20470;-87
2021/06/30 14:03:31;;;;;;;2.60;2.40;;;23.00;89.10;;;;;;5019473;28;20437;-88
2021/06/30 14:05:58;;;;;;;4.10;3.20;;;22.80;89.20;;;;;;5016109;28;20558;-84
2021/06/30 14:09:10;;;;;;;;;;;;;;;;;;;;;
2021/06/30 14:12:16;;;;;;;2.80;2.60;;;22.50;90.70;;;;;;5032611;28;20449;-87
2021/06/30 14:14:58;;;;;;;2.30;2.20;;;22.50;90.60;;;;;;5031376;28;20477;-85
2021/06/30 14:17:28;;;;;;;2.77;2.57;;;22.50;90.50;;;;;;5028468;28;20491;-86
2021/06/30 14:19:55;;;;;;;2.80;2.60;;;22.50;90.50;;;;;;5027312;28;20541;-87
2021/06/30 14:22:29;;;;;;;3.30;3.10;;;22.30;90.70;;;;;;5026597;28;20581;-86
2021/06/30 14:24:57;;;;;;;3.10;2.90;;;22.40;90.40;;;;;;5021166;28;20494;-85
2021/06/30 14:27:28;;;;;;;3.47;3.27;;;22.40;90.60;;;;;;5020288;28;20460;-86
2021/06/30 14:30:02;;;;;;;2.90;2.70;;;22.30;90.90;;;;;;5019899;28;20575;-85
2021/06/30 14:32:29;;;;;;;3.47;3.17;;;22.50;91.10;;;;;;5019811;28;21816;-88
2021/06/30 14:34:57;;;;;;;3.80;3.50;;;22.40;90.10;;;;;;5015556;28;20478;-87
2021/06/30 14:37:25;;;;;;;3.87;3.57;;;22.40;90.20;;;;;;5012170;28;20544;-87
2021/06/30 14:39:52;;;;;;;3.80;3.30;;;22.20;90.20;;;;;;5016170;28;21151;-85
2021/06/30 14:42:20;;;;;;;4.27;3.97;;;22.30;90.60;;;;;;5015403;28;20468;-87
2021/06/30 14:44:48;;;;;;;3.53;3.07;;;22.40;90.40;;;;;;5015017;28;20580;-87
2021/06/30 14:47:16;;;;;;;4.07;3.77;;;22.50;90.50;;;;;;5015002;28;20548;-87
2021/06/30 14:49:43;;;;;;;4.27;3.97;;;22.50;90.60;;;;;;5015007;28;20485;-86
2021/06/30 14:52:13;;;;;;;4.80;4.40;;;22.40;90.30;;;;;;5014671;28;20941;-87
2021/06/30 14:59:28;;;;;;;5.07;4.73;;;22.30;91.10;;;;;;4993521;28;20490;-87
2021/06/30 15:02:00;;;;;;;4.67;4.27;;;22.20;90.80;;;;;;4989927;28;20484;-86
2021/06/30 15:04:30;;;;;;;4.53;4.23;;;22.10;91.00;;;;;;5002991;28;20462;-84
2021/06/30 15:07:57;;;;;;;5.33;4.43;;;22.00;90.90;;;;;;4984148;28;20447;-87
2021/06/30 15:14:01;;;;;;;8.93;8.23;;;22.00;91.10;;;;;;4986303;28;20475;-85
2021/06/30 15:16:34;;;;;;;4.80;4.40;;;22.10;91.40;;;;;;4995111;28;20461;-85
2021/06/30 15:19:02;;;;;;;4.40;4.00;;;22.20;91.50;;;;;;4994061;28;20521;-85
2021/06/30 15:21:29;;;;;;;3.17;2.97;;;22.00;91.20;;;;;;4994015;28;20855;-85
2021/06/30 15:24:21;;;;;;;4.50;4.10;;;22.00;91.30;;;;;;4995278;28;20566;-85
2021/06/30 15:26:51;;;;;;;4.30;3.90;;;22.00;91.30;;;;;;4972258;28;20463;-84
2021/06/30 15:29:18;;;;;;;4.13;3.80;;;22.00;91.40;;;;;;4992753;28;20472;-85
2021/06/30 15:31:47;;;;;;;3.90;3.60;;;22.00;91.10;;;;;;4984373;28;20491;-86
2021/06/30 15:34:16;;;;;;;3.90;3.60;;;21.90;91.20;;;;;;4991850;28;20471;-84
2021/06/30 15:36:46;;;;;;;4.10;3.80;;;21.80;91.40;;;;;;5011304;28;20461;-84
2021/06/30 15:39:32;;;;;;;3.27;3.07;;;21.70;91.70;;;;;;5007305;28;21983;-87
2021/06/30 15:42:42;;;;;;;2.87;2.67;;;21.60;91.70;;;;;;5010957;28;20441;-86
2021/06/30 15:45:23;;;;;;;3.20;3.00;;;21.70;91.80;;;;;;5014128;28;20533;-86
2021/06/30 15:47:51;;;;;;;3.03;2.83;;;21.70;91.70;;;;;;5012198;28;20441;-86
2021/06/30 15:50:17;;;;;;;3.37;3.17;;;21.80;91.90;;;;;;5010693;28;20505;-86
2021/06/30 15:53:08;;;;;;;2.90;2.70;;;21.90;91.60;;;;;;5011348;28;20446;-86
2021/06/30 15:56:42;;;;;;;2.97;2.77;;;21.90;91.80;;;;;;5014834;28;20448;-88
2021/06/30 15:59:20;;;;;;;3.73;3.43;;;21.80;91.10;;;;;;5008734;28;20462;-85
2021/06/30 16:01:48;;;;;;;5.30;3.60;;;21.60;91.60;;;;;;5011939;28;20470;-84
2021/06/30 16:04:15;;;;;;;3.40;3.20;;;21.50;92.20;;;;;;5012307;28;20492;-85
2021/06/30 16:06:45;;;;;;;3.27;3.07;;;21.60;92.30;;;;;;5011627;28;20458;-85
2021/06/30 16:09:12;;;;;;;4.30;3.90;;;21.60;92.00;;;;;;5015175;28;20565;-85
2021/06/30 16:11:43;;;;;;;4.10;3.80;;;21.70;91.70;;;;;;5008429;28;20604;-86
2021/06/30 16:14:11;;;;;;;3.80;3.50;;;21.70;91.70;;;;;;5010683;28;20563;-85
2021/06/30 16:16:39;;;;;;;3.50;3.20;;;21.70;91.40;;;;;;5012494;28;20897;-86
2021/06/30 16:19:12;;;;;;;3.57;3.27;;;21.60;91.60;;;;;;5025509;28;21194;-86
2021/06/30 16:21:41;;;;;;;3.90;3.60;;;21.60;91.80;;;;;;5009999;28;20494;-86
2021/06/30 16:24:14;;;;;;;6.33;5.20;;;21.60;92.00;;;;;;5009275;28;20474;-88
2021/06/30 16:27:08;;;;;;;4.03;3.70;;;21.70;92.20;;;;;;5002307;28;20460;-86
2021/06/30 16:29:35;;;;;;;5.17;4.77;;;21.70;92.70;;;;;;5013799;28;20560;-85
2021/06/30 16:32:03;;;;;;;4.17;3.87;;;21.80;92.70;;;;;;5011755;28;20470;-86
2021/06/30 16:34:30;;;;;;;3.60;3.40;;;21.80;92.60;;;;;;5017191;28;21091;-86
2021/06/30 16:36:58;;;;;;;3.90;3.60;;;21.70;92.80;;;;;;5015547;28;20446;-86
2021/06/30 16:39:25;;;;;;;3.77;3.47;;;21.60;92.70;;;;;;5015808;28;20441;-88
2021/06/30 16:41:55;;;;;;;3.87;3.57;;;21.60;93.00;;;;;;5029526;28;20458;-88
2021/06/30 16:44:25;;;;;;;3.70;3.40;;;21.40;93.30;;;;;;5029980;23;20497;-88
2021/06/30 16:47:57;;;;;;;;;;;;;;;;;;;;;
2021/06/30 16:50:30;;;;;;;8.97;8.27;;;21.30;93.40;;;;;;4997048;28;20474;-84
2021/06/30 16:52:57;;;;;;;4.50;4.10;;;21.10;93.80;;;;;;5022759;28;20462;-82
2021/06/30 16:55:25;;;;;;;3.60;3.30;;;21.10;94.20;;;;;;5021835;28;20473;-83
2021/06/30 16:57:52;;;;;;;4.80;3.80;;;21.20;94.30;;;;;;5019047;28;20454;-84
2021/06/30 17:00:20;;;;;;;6.83;5.70;;;21.10;94.50;;;;;;5007880;28;20457;-85
2021/06/30 17:02:47;;;;;;;6.00;4.80;;;21.00;95.00;;;;;;5010897;28;20575;-87
2021/06/30 17:05:15;;;;;;;5.63;4.87;;;20.90;95.30;;;;;;5032283;28;20505;-85
2021/06/30 17:07:42;;;;;;;4.37;4.07;;;20.70;95.60;;;;;;5010258;28;20456;-85
2021/06/30 17:10:09;;;;;;;4.40;3.93;;;20.70;95.60;;;;;;5022819;28;20461;-88
2021/06/30 17:12:37;;;;;;;4.40;4.07;;;20.70;95.70;;;;;;5023051;28;20460;-85
2021/06/30 17:15:06;;;;;;;3.77;3.47;;;20.60;95.90;;;;;;5005999;28;21323;-85
2021/06/30 17:17:37;;;;;;;3.87;3.30;;;20.50;96.30;;;;;;5006146;28;20445;-85
2021/06/30 17:20:06;;;;;;;3.23;3.03;;;20.40;96.30;;;;;;5004763;28;20468;-85
2021/06/30 17:22:37;;;;;;;3.33;3.03;;;20.40;96.30;;;;;;5006149;28;20496;-84
2021/06/30 17:25:06;;;;;;;4.20;3.80;;;20.40;96.30;;;;;;5032155;28;20517;-86
2021/06/30 17:27:33;;;;;;;6.30;5.80;;;20.40;96.60;;;;;;5035605;28;20436;-85
2021/06/30 17:30:07;;;;;;;6.17;5.57;;;20.30;96.30;;;;;;5017131;28;20952;-84
2021/06/30 17:32:54;;;;;;;3.43;3.13;;;20.30;96.50;;;;;;5046927;28;20546;-86
2021/06/30 17:36:05;;;;;;;;;;;;;;;;;;;;;
2021/06/30 17:38:46;;;;;;;2.93;2.73;;;20.40;96.80;;;;;;5048033;28;20440;-87
2021/06/30 17:41:13;;;;;;;2.70;2.50;;;20.40;96.70;;;;;;5057411;28;20459;-86
2021/06/30 17:43:55;;;;;;;3.57;3.27;;;20.30;96.90;;;;;;5050105;28;20507;-86
2021/06/30 17:47:01;;;;;;;3.80;3.50;;;20.20;97.10;;;;;;5040664;28;20539;-86
2021/06/30 17:49:28;;;;;;;3.20;3.00;;;20.20;97.40;;;;;;5013395;28;20483;-85
2021/06/30 17:51:54;;;;;;;3.10;2.90;;;20.20;97.50;;;;;;5029677;28;20519;-86